createdAt,value
2023-03-31T00:00:37.401Z,94.82
2023-03-31T00:03:10.980Z,95.11
2023-03-31T00:05:40.757Z,94.83
2023-03-31T00:08:14.720Z,94.63
2023-03-31T00:10:47.906Z,94.80
2023-03-31T00:19:51.379Z,95.14
2023-03-31T00:22:28.549Z,95.79
2023-03-31T00:24:57.643Z,94.98
2023-03-31T00:27:29.172Z,95.26
2023-03-31T00:29:56.434Z,95.11
2023-03-31T00:32:25.128Z,94.96
2023-03-31T00:34:53.941Z,95.39
2023-03-31T00:37:22.881Z,96.29
2023-03-31T00:39:51.038Z,95.97
2023-03-31T00:42:18.420Z,95.52
2023-03-31T00:45:21.085Z,95.42
2023-03-31T00:48:18.685Z,95.41
2023-03-31T00:50:55.120Z,95.46
2023-03-31T00:53:28.231Z,95.04
2023-03-31T00:56:00.227Z,95.57
2023-03-31T00:58:31.785Z,96.08
2023-03-31T01:01:14.161Z,95.80
2023-03-31T01:03:47.849Z,95.92
2023-03-31T01:06:20.192Z,96.83
2023-03-31T01:08:53.956Z,95.88
2023-03-31T01:11:28.185Z,96.15
2023-03-31T01:13:59.226Z,96.58
2023-03-31T01:16:27.707Z,96.24
2023-03-31T01:18:58.151Z,97.18
2023-03-31T01:22:01.048Z,97.74
2023-03-31T01:25:02.006Z,96.64
2023-03-31T01:27:57.313Z,97.20
2023-03-31T01:34:10.127Z,97.61
2023-03-31T01:36:56.763Z,97.72
2023-03-31T01:39:46.095Z,97.70
2023-03-31T01:42:45.673Z,98.04
2023-03-31T01:45:33.004Z,97.35
2023-03-31T01:48:18.942Z,96.73
2023-03-31T01:51:00.541Z,95.60
2023-03-31T01:53:44.973Z,95.83
2023-03-31T01:56:39.811Z,94.71
2023-03-31T01:59:22.432Z,94.59
2023-03-31T02:02:00.593Z,96.14
2023-03-31T02:04:36.460Z,96.37
2023-03-31T02:07:21.324Z,97.10
2023-03-31T02:09:54.335Z,98.07
2023-03-31T02:15:26.845Z,99.39
2023-03-31T02:20:43.359Z,98.91
2023-03-31T02:26:02.658Z,99.66
2023-03-31T02:28:31.439Z,99.50
2023-03-31T02:31:21.563Z,100.00
2023-03-31T02:33:49.872Z,99.37
2023-03-31T02:36:19.354Z,99.80
2023-03-31T02:38:52.561Z,99.65
2023-03-31T02:41:19.743Z,99.59
2023-03-31T02:43:47.002Z,99.93
2023-03-31T02:46:15.234Z,100.00
2023-03-31T02:48:49.543Z,99.48
2023-03-31T02:51:20.081Z,98.94
2023-03-31T02:53:50.121Z,99.16
2023-03-31T02:56:26.971Z,99.29
2023-03-31T02:58:57.742Z,99.36
2023-03-31T03:02:01.430Z,99.87
2023-03-31T03:04:51.003Z,98.79
2023-03-31T03:07:37.778Z,98.81
2023-03-31T03:10:10.983Z,97.95
2023-03-31T03:12:58.820Z,97.26
2023-03-31T03:16:04.402Z,96.48
2023-03-31T03:18:32.047Z,97.08
2023-03-31T03:20:59.247Z,97.96
2023-03-31T03:23:26.131Z,97.82
2023-03-31T03:25:53.104Z,98.79
2023-03-31T03:28:20.173Z,98.84
2023-03-31T03:30:47.437Z,99.55
2023-03-31T03:33:17.250Z,100.00
2023-03-31T03:35:44.586Z,100.00
2023-03-31T03:38:11.525Z,100.00
2023-03-31T03:40:38.490Z,100.00
2023-03-31T03:43:05.405Z,100.00
2023-03-31T03:45:32.463Z,100.00
2023-03-31T03:47:59.499Z,100.00
2023-03-31T03:50:26.472Z,100.00
2023-03-31T03:52:53.465Z,100.00
2023-03-31T03:55:20.443Z,100.00
2023-03-31T03:57:47.459Z,100.00
2023-03-31T04:00:14.552Z,100.00
2023-03-31T04:02:42.453Z,100.00
2023-03-31T04:05:10.000Z,100.00
2023-03-31T04:07:40.035Z,100.00
2023-03-31T04:10:07.915Z,100.00
2023-03-31T04:12:36.084Z,100.00
2023-03-31T04:15:03.360Z,100.00
2023-03-31T04:17:34.485Z,100.00
2023-03-31T04:20:10.363Z,100.00
2023-03-31T04:22:41.250Z,100.00
2023-03-31T04:25:16.838Z,100.00
2023-03-31T04:27:54.969Z,100.00
2023-03-31T04:30:23.519Z,100.00
2023-03-31T04:32:50.899Z,100.00
2023-03-31T04:35:20.785Z,99.95
2023-03-31T04:37:58.962Z,100.00
2023-03-31T04:40:26.873Z,99.49
2023-03-31T04:42:53.919Z,100.00
2023-03-31T04:45:20.800Z,100.00
2023-03-31T04:47:47.858Z,100.00
2023-03-31T04:50:16.928Z,100.00
2023-03-31T04:52:44.491Z,100.00
2023-03-31T04:55:11.610Z,100.00
2023-03-31T04:57:39.852Z,100.00
2023-03-31T05:00:11.135Z,100.00
2023-03-31T05:02:38.328Z,100.00
2023-03-31T05:05:06.286Z,100.00
2023-03-31T05:07:34.095Z,100.00
2023-03-31T05:10:03.691Z,100.00
2023-03-31T05:12:37.363Z,100.00
2023-03-31T05:15:07.368Z,98.85
2023-03-31T05:17:36.009Z,98.04
2023-03-31T05:20:06.992Z,98.79
2023-03-31T05:22:39.273Z,98.35
2023-03-31T05:25:08.821Z,97.94
2023-03-31T05:27:36.514Z,97.83
2023-03-31T05:30:04.746Z,99.09
2023-03-31T05:32:31.813Z,100.00
2023-03-31T05:34:59.079Z,100.00
2023-03-31T05:37:31.580Z,100.00
2023-03-31T05:39:59.038Z,100.00
2023-03-31T05:42:26.183Z,100.00
2023-03-31T05:44:53.316Z,100.00
2023-03-31T05:47:20.970Z,100.00
2023-03-31T05:49:48.085Z,100.00
2023-03-31T05:52:15.011Z,100.00
2023-03-31T05:54:42.999Z,100.00
2023-03-31T05:57:10.307Z,100.00
2023-03-31T05:59:38.557Z,100.00
2023-03-31T06:02:05.920Z,100.00
2023-03-31T06:04:33.150Z,100.00
2023-03-31T06:07:00.335Z,99.63
2023-03-31T06:09:28.591Z,98.77
2023-03-31T06:11:55.773Z,98.67
2023-03-31T06:14:24.032Z,99.15
2023-03-31T06:16:51.465Z,99.37
2023-03-31T06:19:18.516Z,99.17
2023-03-31T06:21:46.520Z,99.10
2023-03-31T06:24:13.500Z,98.92
2023-03-31T06:26:40.854Z,98.97
2023-03-31T06:29:07.969Z,99.03
2023-03-31T06:31:35.319Z,99.73
2023-03-31T06:34:02.400Z,98.73
2023-03-31T06:36:29.527Z,97.79
2023-03-31T06:38:56.729Z,97.42
2023-03-31T06:41:24.056Z,97.09
2023-03-31T06:43:51.272Z,97.05
2023-03-31T06:46:18.367Z,96.92
2023-03-31T06:48:45.655Z,96.89
2023-03-31T06:51:13.690Z,97.55
2023-03-31T06:53:40.925Z,97.05
2023-03-31T06:56:10.672Z,96.79
2023-03-31T06:58:37.732Z,95.64
2023-03-31T07:01:06.251Z,95.64
2023-03-31T07:03:34.304Z,96.57
2023-03-31T07:06:01.680Z,96.90
2023-03-31T07:08:28.932Z,96.55
2023-03-31T07:10:58.595Z,96.71
2023-03-31T07:13:26.643Z,95.77
2023-03-31T07:15:53.983Z,96.85
2023-03-31T07:18:21.909Z,95.71
2023-03-31T07:20:50.736Z,97.33
2023-03-31T07:23:18.727Z,97.52
2023-03-31T07:25:47.135Z,96.79
2023-03-31T07:28:14.218Z,97.46
2023-03-31T07:30:41.994Z,98.25
2023-03-31T07:33:09.571Z,97.90
2023-03-31T07:35:42.857Z,97.45
2023-03-31T07:38:11.165Z,97.88
2023-03-31T07:40:39.832Z,97.37
2023-03-31T07:43:08.276Z,96.29
2023-03-31T07:45:35.483Z,96.37
2023-03-31T07:48:02.574Z,96.53
2023-03-31T07:50:29.749Z,97.23
2023-03-31T07:52:59.119Z,97.44
2023-03-31T07:55:27.472Z,96.58
2023-03-31T07:57:56.013Z,96.38
2023-03-31T08:00:23.397Z,96.20
2023-03-31T08:02:50.751Z,96.92
2023-03-31T08:05:19.947Z,96.88
2023-03-31T08:07:49.510Z,98.04
2023-03-31T08:10:25.971Z,97.17
2023-03-31T08:12:53.667Z,98.24
2023-03-31T08:15:20.760Z,98.08
2023-03-31T08:17:48.029Z,98.36
2023-03-31T08:20:15.568Z,98.80
2023-03-31T08:22:42.723Z,98.72
2023-03-31T08:25:10.572Z,98.96
2023-03-31T08:27:39.801Z,99.03
2023-03-31T08:30:09.382Z,98.91
2023-03-31T08:32:36.737Z,98.44
2023-03-31T08:35:04.662Z,99.08
2023-03-31T08:37:32.509Z,97.76
2023-03-31T08:39:59.808Z,97.69
2023-03-31T08:42:39.134Z,98.31
2023-03-31T08:45:16.185Z,98.08
2023-03-31T08:47:46.088Z,98.25
2023-03-31T08:50:31.189Z,98.26
2023-03-31T08:53:09.188Z,98.13
2023-03-31T08:55:57.860Z,98.12
2023-03-31T08:58:45.105Z,98.69
2023-03-31T09:01:44.183Z,98.65
2023-03-31T09:04:15.406Z,98.48
2023-03-31T09:07:04.505Z,98.85
2023-03-31T09:09:53.256Z,97.41
2023-03-31T09:12:22.560Z,97.61
2023-03-31T09:15:10.499Z,97.40
2023-03-31T09:17:46.470Z,97.78
2023-03-31T09:20:19.577Z,97.92
2023-03-31T09:22:56.111Z,97.89
2023-03-31T09:25:33.813Z,98.16
2023-03-31T09:28:02.975Z,97.33
2023-03-31T09:30:33.601Z,97.29
2023-03-31T09:33:15.770Z,98.03
2023-03-31T09:35:45.119Z,96.50
2023-03-31T09:38:14.590Z,96.34
2023-03-31T09:40:42.916Z,95.30
2023-03-31T09:43:22.372Z,95.84
2023-03-31T09:46:05.417Z,94.83
2023-03-31T09:48:36.722Z,94.90
2023-03-31T09:51:07.225Z,94.25
2023-03-31T09:53:51.197Z,95.08
2023-03-31T09:56:54.215Z,94.70
2023-03-31T09:59:32.114Z,94.22
2023-03-31T10:02:03.185Z,94.29
2023-03-31T10:04:34.814Z,95.33
2023-03-31T10:07:05.067Z,95.21
2023-03-31T10:09:37.346Z,95.63
2023-03-31T10:12:09.117Z,95.53
2023-03-31T10:14:45.080Z,95.92
2023-03-31T10:17:23.909Z,95.14
2023-03-31T10:19:58.912Z,95.33
2023-03-31T10:22:31.822Z,95.60
2023-03-31T10:25:27.925Z,94.91
2023-03-31T10:27:56.932Z,94.68
2023-03-31T10:30:28.909Z,95.54
2023-03-31T10:32:56.182Z,93.78
2023-03-31T10:35:31.857Z,93.46
2023-03-31T10:38:05.781Z,93.07
2023-03-31T10:40:35.714Z,92.70
2023-03-31T10:43:18.267Z,93.08
2023-03-31T10:45:49.753Z,92.93
2023-03-31T10:48:28.787Z,93.82
2023-03-31T10:51:20.370Z,93.47
2023-03-31T10:53:50.087Z,94.86
2023-03-31T10:56:37.658Z,96.26
2023-03-31T10:59:16.883Z,97.63
2023-03-31T11:02:01.022Z,99.78
2023-03-31T11:04:56.105Z,100.00
2023-03-31T11:07:44.741Z,100.00
2023-03-31T11:10:36.817Z,100.00
2023-03-31T11:13:46.013Z,100.00
2023-03-31T11:16:51.973Z,100.00
2023-03-31T11:19:43.666Z,100.00
2023-03-31T11:22:21.821Z,100.00
2023-03-31T11:25:15.193Z,100.00
2023-03-31T11:28:21.541Z,100.00
2023-03-31T11:31:18.023Z,100.00
2023-03-31T11:33:57.753Z,100.00
2023-03-31T11:36:53.459Z,100.00
2023-03-31T11:39:56.854Z,100.00
2023-03-31T11:42:34.015Z,100.00
2023-03-31T11:45:12.328Z,100.00
2023-03-31T11:47:44.739Z,100.00
2023-03-31T11:50:15.106Z,100.00
2023-03-31T11:52:51.019Z,100.00
2023-03-31T11:55:26.089Z,100.00
2023-03-31T11:58:17.254Z,100.00
2023-03-31T12:00:50.079Z,100.00
2023-03-31T12:03:24.583Z,100.00
2023-03-31T12:06:02.775Z,100.00
2023-03-31T12:08:38.371Z,100.00
2023-03-31T12:11:19.534Z,99.66
2023-03-31T12:13:56.101Z,100.00
2023-03-31T12:16:33.761Z,99.74
2023-03-31T12:19:14.959Z,100.00
2023-03-31T12:21:49.440Z,100.00
2023-03-31T12:24:16.584Z,100.00
2023-03-31T12:27:02.378Z,100.00
2023-03-31T12:29:55.796Z,100.00
2023-03-31T12:32:28.112Z,100.00
2023-03-31T12:35:02.362Z,100.00
2023-03-31T12:38:11.983Z,100.00
2023-03-31T12:40:58.709Z,100.00
2023-03-31T12:44:07.444Z,100.00
2023-03-31T12:46:37.580Z,100.00
2023-03-31T12:49:39.648Z,100.00
2023-03-31T12:52:40.392Z,100.00
2023-03-31T12:55:09.812Z,100.00
2023-03-31T12:57:37.552Z,100.00
2023-03-31T13:00:21.113Z,100.00
2023-03-31T13:02:49.204Z,100.00
2023-03-31T13:05:37.759Z,100.00
2023-03-31T13:09:08.779Z,100.00
2023-03-31T13:11:38.938Z,100.00
2023-03-31T13:14:14.681Z,100.00
2023-03-31T13:16:41.961Z,100.00
2023-03-31T13:19:13.541Z,100.00
2023-03-31T13:22:07.638Z,100.00
2023-03-31T13:24:35.136Z,100.00
2023-03-31T13:27:39.606Z,100.00
2023-03-31T13:30:41.709Z,100.00
2023-03-31T13:33:18.167Z,100.00
2023-03-31T13:35:52.515Z,100.00
2023-03-31T13:38:19.476Z,100.00
2023-03-31T13:40:54.158Z,100.00
2023-03-31T13:43:55.964Z,100.00
2023-03-31T13:46:42.207Z,100.00
2023-03-31T13:49:34.100Z,100.00
2023-03-31T13:52:10.391Z,100.00
2023-03-31T13:55:16.732Z,100.00
2023-03-31T13:58:24.809Z,100.00
2023-03-31T14:01:24.125Z,100.00
2023-03-31T14:03:58.353Z,100.00
2023-03-31T14:06:41.973Z,100.00
2023-03-31T14:09:32.462Z,100.00
2023-03-31T14:12:00.484Z,100.00
2023-03-31T14:14:29.978Z,100.00
2023-03-31T14:16:57.074Z,100.00
2023-03-31T14:19:27.637Z,100.00
2023-03-31T14:22:00.119Z,100.00
2023-03-31T14:24:30.169Z,100.00
2023-03-31T14:27:31.514Z,100.00
2023-03-31T14:30:13.203Z,100.00
2023-03-31T14:33:10.079Z,100.00
2023-03-31T14:35:55.027Z,100.00
2023-03-31T14:38:23.682Z,100.00
2023-03-31T14:40:57.750Z,100.00
2023-03-31T14:43:28.463Z,100.00
2023-03-31T14:46:04.466Z,100.00
2023-03-31T14:48:45.172Z,100.00
2023-03-31T14:51:15.668Z,100.00
2023-03-31T14:53:46.172Z,100.00
2023-03-31T14:56:18.939Z,100.00
2023-03-31T14:58:51.799Z,100.00
2023-03-31T15:01:35.843Z,100.00
2023-03-31T15:04:10.676Z,100.00
2023-03-31T15:06:40.187Z,100.00
2023-03-31T15:09:08.429Z,100.00
2023-03-31T15:11:36.116Z,100.00
2023-03-31T15:14:05.446Z,100.00
2023-03-31T15:16:43.196Z,100.00
2023-03-31T15:19:37.948Z,100.00
2023-03-31T15:22:14.438Z,100.00
2023-03-31T15:24:41.484Z,100.00
2023-03-31T15:27:18.053Z,100.00
2023-03-31T15:29:50.853Z,100.00
2023-03-31T15:32:29.785Z,100.00
2023-03-31T15:35:04.739Z,100.00
2023-03-31T15:37:41.648Z,100.00
2023-03-31T15:40:27.799Z,100.00
2023-03-31T15:43:26.060Z,100.00
2023-03-31T16:52:41.288Z,100.00
2023-03-31T17:13:53.459Z,100.00
2023-03-31T17:40:57.666Z,100.00
2023-03-31T17:49:52.562Z,100.00
2023-03-31T17:52:22.157Z,100.00
2023-03-31T17:57:37.460Z,100.00
2023-03-31T18:00:07.526Z,100.00
2023-03-31T18:05:27.696Z,100.00
2023-03-31T18:28:40.653Z,100.00
2023-03-31T19:34:30.230Z,100.00
2023-03-31T19:39:58.500Z,100.00
2023-03-31T20:38:17.530Z,100.00
2023-03-31T20:43:42.668Z,100.00
2023-03-31T20:48:58.176Z,100.00
2023-03-31T21:05:33.729Z,100.00
2023-03-31T21:22:13.364Z,100.00
2023-03-31T21:27:31.758Z,100.00
2023-03-31T21:50:25.977Z,100.00
2023-03-31T22:06:39.359Z,100.00
2023-03-31T22:17:22.986Z,100.00
2023-03-31T23:38:12.330Z,100.00
2023-03-31T23:46:14.690Z,100.00
2023-03-31T23:51:25.737Z,100.00
2023-03-31T23:56:34.716Z,100.00
